Arlington, United Kingdom
Current Conditions -  °F | °C
As of 11:50 PM on Friday 24 Oct 2014 (Local Time) from EGDX Reporting Station
Broken Clouds Broken Clouds  
Wind Chill: 55°   Ceiling: 3900
Heat Index: 55°   Visibility: 6mi
Dew Point: 46°   Wind: 10mph
Humidity: 72%   Direction: 290°WNW
Pressure: 29.97"   Gusts: NA
Location:  51.15°N, 3.98°W
Report Text: EGDX 242250Z AUTO 29009KT 9999 BKN039/// 13/08 Q1015
Loading
Personal Weather Stations






























Interactive Weather Map
Tropical Storm Tracking
New forecast layout! Learn more

10-Day Weather Forecast

Advertisements
Track Severe Weather on mobile